Flight Track Log - Related Links

Times and Time Zones

All times are in EDT time to prevent confusion due to time zone crossing. See the N4226K flight status page for this flight to view local times or setup timezone preferences in your user account.

Time Position Orientation Groundspeed Altitude Reporting Facility
EDT Latitude Longitude Course Direction KTS MPH feet Rate Location/Type
Fri 09:32:52 AM 34.2836 -83.1714 201° Southwest 140 161 2,100  Level Atlanta Center
Fri 09:33:52 AM 34.2547 -83.1817 196° South 134 154 2,500 400 Climbing Atlanta Center
Fri 09:34:52 AM 34.2275 -83.1922 198° South 121 139 2,900 350 Climbing Atlanta Center
Fri 09:35:52 AM 34.2006 -83.2100 209° Southwest 116 133 3,200 350 Climbing Atlanta Center
Fri 09:36:52 AM 34.1714 -83.2203 196° South 111 128 3,600 400 Climbing Atlanta Center
Fri 09:37:52 AM 34.1464 -83.2331 203° Southwest 111 128 4,000 400 Climbing Atlanta Center
Fri 09:38:00 AM 34.1519 -83.2147 201° Southwest  Level FlightAware Approximate
Fri 09:38:52 AM 34.1172 -83.2483 203° Southwest 111 128 4,400  Level Atlanta Center
Fri 09:39:52 AM 34.0903 -83.2586 198° South 111 128 4,700 250 Climbing Atlanta Center
Fri 09:40:52 AM 34.0631 -83.2714 201° Southwest 111 128 4,900 100 Climbing Atlanta Center
Fri 09:41:52 AM 34.0361 -83.2842 201° Southwest 116 133 4,900  Level Atlanta Center
Fri 09:42:52 AM 34.0050 -83.2994 202° Southwest 116 133 4,900 32 Level Atlanta Center
Fri 09:45:00 AM 33.9333 -83.3167 191° South 122 140 5,000  Climbing Atlanta TRACON
Fri 09:46:00 AM 33.9000 -83.3000 157° South 127 146 4,900 -50 Descending Atlanta TRACON
Fri 09:47:00 AM 33.8667 -83.2833 157° South 126 145 4,900  Level Atlanta TRACON
Fri 09:51:00 AM 33.7333 -83.2500 164° South 123 142 4,900  Level Atlanta TRACON
Fri 09:52:00 AM 33.7000 -83.2333 157° South 124 143 4,900  Level Atlanta TRACON
Fri 09:54:00 AM 33.6500 -83.2167 170° South 126 145 4,900  Level Atlanta TRACON
Fri 09:55:00 AM 33.6110 -83.1943 164° South  Level FlightAware Approximate
Fri 09:55:00 AM 33.6167 -83.2000 157° South 126 145 4,900  Level Atlanta TRACON
Fri 09:56:00 AM 33.5790 -83.1832 164° South  Level FlightAware Approximate
Fri 09:56:00 AM 33.5833 -83.1833 157° South 128 147 4,900  Level Atlanta TRACON
Fri 09:58:00 AM 33.5167 -83.1667 168° South 127 146 5,000 33 Climbing Atlanta TRACON
Fri 09:59:00 AM 33.4833 -83.1500 157° South 126 145 5,000 -50 Level Atlanta TRACON
Fri 10:00:00 AM 33.4500 -83.1333 157° South 128 147 4,900 -50 Descending Atlanta TRACON
Fri 10:01:00 AM 33.4167 -83.1167 157° South 125 144 4,900  Level Atlanta TRACON
Fri 10:02:55 AM 33.3500 -83.1167 180° South 124 143 4,900  Level Atlanta TRACON
Fri 10:04:00 AM 33.3000 -83.1000 164° South 127 146 4,900  Level Atlanta TRACON
Fri 10:04:55 AM 33.2833 -83.1000 180° South 125 144 4,900 52 Level Atlanta TRACON
Fri 10:05:55 AM 33.2500 -83.0833 157° South 125 144 5,000 53 Climbing Atlanta TRACON
Fri 10:06:49 AM 33.2167 -83.0833 180° South 126 145 5,000 -50 Level Atlanta TRACON
Fri 10:07:55 AM 33.1667 -83.0833 180° South 128 147 4,900 -50 Descending Atlanta TRACON
Fri 10:08:49 AM 33.1500 -83.0667 140° Southeast 124 143 4,900 50 Level Atlanta TRACON
Fri 10:09:55 AM 33.1000 -83.0667 180° South 124 143 5,000 48 Climbing Atlanta TRACON
Fri 10:10:55 AM 33.0667 -83.0500 157° South 127 146 5,000 -53 Level Atlanta TRACON
Fri 10:11:49 AM 33.0333 -83.0500 180° South 128 147 4,900 -53 Descending Atlanta TRACON
Fri 10:12:49 AM 33.0000 -83.0333 157° South 126 145 4,900 50 Level Atlanta TRACON
Fri 10:13:49 AM 32.9667 -83.0333 180° South 126 145 5,000  Climbing Atlanta TRACON
Fri 10:14:55 AM 32.9333 -83.0333 180° South 127 146 4,900  Descending Atlanta TRACON
Fri 10:15:55 AM 32.9000 -83.0167 157° South 126 145 5,000 50 Climbing Atlanta TRACON
Fri 10:16:55 AM 32.8667 -83.0167 180° South 126 145 5,000  Level Atlanta TRACON
Fri 10:17:50 AM 32.8333 -83.0000 157° South 126 145 5,000  Level Atlanta TRACON
Fri 10:18:56 AM 32.8000 -83.0000 180° South 139 160 5,000  Level Atlanta TRACON
Fri 10:20:02 AM 32.7500 -82.9833 164° South 131 151 5,000  Level Atlanta TRACON
Fri 10:20:56 AM 32.7333 -82.9833 180° South 126 145 5,000  Level Atlanta TRACON
Fri 10:21:56 AM 32.7000 -82.9667 157° South 129 148 5,000  Level Atlanta TRACON
Fri 10:23:02 AM 32.6500 -82.9667 180° South 131 151 5,000  Level Atlanta TRACON
Fri 10:23:56 AM 32.6167 -82.9667 180° South 130 150 5,000  Level Atlanta TRACON
Fri 10:24:56 AM 32.5833 -82.9500 157° South 127 146 5,000 -50 Level Atlanta TRACON
Fri 10:25:56 AM 32.5500 -82.9500 180° South 131 151 4,900 -50 Descending Atlanta TRACON
Fri 10:26:56 AM 32.5167 -82.9333 157° South 126 145 4,900  Level Atlanta TRACON
Fri 10:28:02 AM 32.4833 -82.9333 180° South 128 147 4,900  Level Atlanta TRACON
Fri 10:29:02 AM 32.4500 -82.9167 157° South 128 147 4,900 33 Level Atlanta TRACON
Fri 10:31:02 AM 32.3667 -82.9000 170° South 132 152 5,000 33 Climbing Atlanta TRACON
Fri 10:32:02 AM 32.3333 -82.9000 180° South 134 154 5,000  Level Atlanta TRACON
Fri 10:33:02 AM 32.3000 -82.8833 157° South 131 151 5,000 -47 Level Atlanta TRACON
Fri 10:34:09 AM 32.2606 -82.8853 182° South 138 159 4,900  Descending Jacksonville Center
Fri 10:35:09 AM 32.2228 -82.8778 170° South 138 159 5,000 50 Climbing Jacksonville Center
Fri 10:36:09 AM 32.1894 -82.8681 166° South 138 159 5,000 50 Level Jacksonville Center
Fri 10:37:09 AM 32.1539 -82.8606 170° South 138 159 5,100 50 Climbing Jacksonville Center
Fri 10:38:09 AM 32.1206 -82.8533 170° South 133 153 5,100  Level Jacksonville Center
Fri 10:39:09 AM 32.0831 -82.8436 168° South 133 153 5,100 -50 Level Jacksonville Center
Fri 10:40:09 AM 32.0475 -82.8386 173° South 133 153 5,000 -50 Descending Jacksonville Center
Fri 10:41:09 AM 32.0142 -82.8314 170° South 127 146 5,000  Level Jacksonville Center
Fri 10:42:09 AM 31.9808 -82.8239 169° South 127 146 5,000  Level Jacksonville Center
Fri 10:43:09 AM 31.9431 -82.8167 171° South 127 146 5,000 50 Level Jacksonville Center
Fri 10:44:09 AM 31.9075 -82.8119 174° South 127 146 5,100  Climbing Jacksonville Center
Fri 10:45:09 AM 31.8722 -82.8044 170° South 127 146 5,000 -50 Descending Jacksonville Center
Fri 10:46:09 AM 31.8367 -82.7947 167° South 121 139 5,000  Level Jacksonville Center
Fri 10:47:09 AM 31.8033 -82.7900 173° South 126 145 5,000  Level Jacksonville Center
Fri 10:48:09 AM 31.7678 -82.7803 167° South 126 145 5,000 50 Level Jacksonville Center
Fri 10:49:09 AM 31.7342 -82.7728 169° South 131 151 5,100 50 Climbing Jacksonville Center
Fri 10:50:09 AM 31.7008 -82.7583 160° South 126 145 5,100 -50 Level Jacksonville Center
Fri 10:51:09 AM 31.6675 -82.7411 156° South 126 145 5,000 -50 Descending Jacksonville Center
Fri 10:52:09 AM 31.6297 -82.7267 162° South 126 145 5,000  Level Jacksonville Center
Fri 10:53:09 AM 31.5986 -82.7119 158° South 126 145 5,000  Level Jacksonville Center
Fri 10:54:09 AM 31.5650 -82.6975 160° South 126 145 5,000  Level Jacksonville Center
Fri 10:55:09 AM 31.5317 -82.6831 160° South 131 151 5,000  Level Jacksonville Center
Fri 10:56:09 AM 31.5003 -82.6683 158° South 131 151 5,000 50 Level Jacksonville Center
Fri 10:57:09 AM 31.4689 -82.6514 155° Southeast 131 151 5,100 50 Climbing Jacksonville Center
Fri 10:58:09 AM 31.4356 -82.6369 160° South 131 151 5,100 100 Level Jacksonville Center
Fri 10:59:09 AM 31.4042 -82.6225 159° South 131 151 5,300 300 Climbing Jacksonville Center
Fri 11:00:09 AM 31.3750 -82.6078 157° South 131 151 5,700 400 Climbing Jacksonville Center
Fri 11:01:09 AM 31.3456 -82.5958 161° South 131 151 6,100 350 Climbing Jacksonville Center
Fri 11:02:09 AM 31.3122 -82.5839 163° South 131 151 6,400 400 Climbing Jacksonville Center
Fri 11:03:09 AM 31.2872 -82.5692 153° Southeast 131 151 6,900 450 Climbing Jacksonville Center
Fri 11:04:09 AM 31.2578 -82.5547 157° South 126 145 7,300 350 Climbing Jacksonville Center
Fri 11:05:09 AM 31.2267 -82.5547 180° South 121 139 7,600 400 Climbing Jacksonville Center
Fri 11:06:09 AM 31.1972 -82.5525 176° South 116 133 8,100 450 Climbing Jacksonville Center
Fri 11:07:09 AM 31.1681 -82.5550 184° South 111 128 8,500 350 Climbing Jacksonville Center
Fri 11:08:09 AM 31.1367 -82.5578 184° South 111 128 8,800 300 Climbing Jacksonville Center
Fri 11:09:09 AM 31.1056 -82.5578 180° South 111 128 9,100 150 Climbing Jacksonville Center
Fri 11:10:09 AM 31.0742 -82.5578 180° South 111 128 9,100 -50 Level Jacksonville Center
Fri 11:11:09 AM 31.0364 -82.5556 177° South 123 142 9,000 -50 Descending Jacksonville Center
Fri 11:12:09 AM 31.0011 -82.5581 183° South 129 148 9,000  Level Jacksonville Center
Fri 11:13:09 AM 30.9656 -82.5583 180° South 129 148 9,000  Level Jacksonville Center
Fri 11:14:09 AM 30.9322 -82.5608 184° South 123 142 9,000  Level Jacksonville Center
Fri 11:15:09 AM 30.8986 -82.5583 176° South 123 142 9,000  Level Jacksonville Center
Fri 11:16:09 AM 30.8633 -82.5611 184° South 123 142 9,000  Level Jacksonville Center
Fri 11:17:09 AM 30.8278 -82.5586 177° South 123 142 9,000  Level Jacksonville Center
Fri 11:18:09 AM 30.7922 -82.5589 180° South 123 142 9,000  Level Jacksonville Center
Fri 11:19:09 AM 30.7567 -82.5567 177° South 123 142 9,000  Level Jacksonville Center
Fri 11:20:09 AM 30.7211 -82.5592 183° South 123 142 9,000  Level Jacksonville Center
Fri 11:21:09 AM 30.6836 -82.5569 177° South 123 142 9,000  Level Jacksonville Center
Fri 11:22:09 AM 30.6503 -82.5569 180° South 123 142 9,000  Level Jacksonville Center
Fri 11:23:09 AM 30.6147 -82.5569 180° South 123 142 9,000  Level Jacksonville Center
Fri 11:24:09 AM 30.5772 -82.5572 180° South 123 142 9,000  Level Jacksonville Center
Fri 11:25:09 AM 30.5439 -82.5550 177° South 123 142 9,000  Level Jacksonville Center
Fri 11:26:09 AM 30.5083 -82.5550 180° South 123 142 9,000  Level Jacksonville Center
Fri 11:27:09 AM 30.4728 -82.5456 167° South 123 142 9,000  Level Jacksonville Center
Fri 11:28:09 AM 30.4372 -82.5383 170° South 123 142 9,000  Level Jacksonville Center
Fri 11:29:09 AM 30.4039 -82.5314 170° South 123 142 9,000  Level Jacksonville Center
Fri 11:30:09 AM 30.3683 -82.5217 167° South 123 142 9,000  Level Jacksonville Center
Fri 11:31:09 AM 30.3347 -82.5147 170° South 123 142 9,000  Level Jacksonville Center
Fri 11:32:09 AM 30.2994 -82.5078 170° South 123 142 9,000  Level Jacksonville Center
Fri 11:33:09 AM 30.2658 -82.5006 169° South 123 142 9,000  Level Jacksonville Center
Fri 11:34:09 AM 30.2303 -82.4936 170° South 123 142 9,000  Level Jacksonville Center
Fri 11:35:09 AM 30.1969 -82.4864 169° South 123 142 9,000  Level Jacksonville Center
Fri 11:36:09 AM 30.1614 -82.4794 170° South 123 142 9,000  Level Jacksonville Center
Fri 11:37:09 AM 30.1239 -82.4747 174° South 123 142 9,000  Level Jacksonville Center
Fri 11:37:34 AM 30.1072 -82.4725 173° South 127 146 9,000  Level Jacksonville Center
Fri 11:38:09 AM 30.0906 -82.4653 159° South 123 142 9,000  Level Jacksonville Center
Fri 11:38:35 AM 30.0694 -82.4631 175° South 130 150 9,000  Level Jacksonville Center
Fri 11:39:09 AM 30.0550 -82.4583 164° South 123 142 9,000 98 Level Jacksonville Center
Fri 11:39:36 AM 30.0339 -82.4558 174° South 127 146 9,100  Climbing Jacksonville Center
Fri 11:40:09 AM 30.0172 -82.4489 160° South 123 142 9,000  Descending Jacksonville Center
Fri 11:40:37 AM 29.9986 -82.4489 180° South 129 148 9,100  Climbing Jacksonville Center
Fri 11:41:09 AM 29.9817 -82.4417 160° South 123 142 9,000 -98 Descending Jacksonville Center
Fri 11:41:38 AM 29.9631 -82.4419 181° South 130 150 9,000  Level Jacksonville Center
Fri 11:42:09 AM 29.9442 -82.4372 168° South 123 142 9,000  Level Jacksonville Center
Fri 11:42:39 AM 29.9253 -82.4347 173° South 130 150 9,000  Level Jacksonville Center
Fri 11:43:09 AM 29.9108 -82.4300 164° South 123 142 9,000  Level Jacksonville Center
Fri 11:43:40 AM 29.8900 -82.4278 175° South 129 148 9,000  Level Jacksonville Center
Fri 11:44:09 AM 29.8753 -82.4208 158° South 123 142 9,000  Level Jacksonville Center
Fri 11:44:41 AM 29.8544 -82.4161 169° South 128 147 9,000  Level Jacksonville Center
Fri 11:45:09 AM 29.8439 -82.4136 168° South 123 142 9,000 98 Level Jacksonville Center
Fri 11:45:42 AM 29.8167 -82.4089 171° South 130 150 9,100  Climbing Jacksonville Center
Fri 11:46:09 AM 29.8083 -82.4089 180° South 123 142 9,000 -98 Descending Jacksonville Center
Fri 11:46:43 AM 29.7833 -82.4044 171° South 128 147 9,000  Level Jacksonville Center
Fri 11:47:09 AM 29.7728 -82.3997 159° South 123 142 9,000  Level Jacksonville Center
Fri 11:47:44 AM 29.7478 -82.3975 176° South 130 150 9,000  Level Jacksonville Center
Fri 11:48:45 AM 29.7122 -82.3903 170° South 129 148 9,000 49 Level Jacksonville Center
Fri 11:49:46 AM 29.6725 -82.3811 169° South 129 148 9,100  Climbing Jacksonville Center
Fri 11:50:48 AM 29.6369 -82.3742 170° South 131 151 9,000 -49 Descending Jacksonville Center
Fri 11:51:49 AM 29.6017 -82.3694 173° South 133 153 9,000  Level Jacksonville Center
Fri 11:52:50 AM 29.5639 -82.3600 168° South 130 150 9,000  Level Jacksonville Center
Fri 11:53:51 AM 29.5264 -82.3531 171° South 131 151 9,000  Level Jacksonville Center
Fri 11:54:53 AM 29.4908 -82.3439 167° South 130 150 9,000  Level Jacksonville Center
Fri 11:55:54 AM 29.4531 -82.3344 168° South 134 154 9,000  Level Jacksonville Center
Fri 11:56:49 AM 29.4197 -82.3275 170° South 132 152 9,000  Level Jacksonville Center
Fri 11:57:51 AM 29.3842 -82.3231 174° South 131 151 9,000  Level Jacksonville Center
Fri 11:58:58 AM 29.3425 -82.3136 169° South 134 154 9,000 47 Level Jacksonville Center
Fri 11:59:59 AM 29.3069 -82.3067 170° South 133 153 9,100 49 Climbing Jacksonville Center
Fri 12:01:00 PM 29.2692 -82.2975 168° South 132 152 9,100 -49 Level Jacksonville Center
Fri 12:02:01 PM 29.2317 -82.2906 171° South 135 155 9,000 -52 Descending Jacksonville Center
Fri 12:02:56 PM 29.1961 -82.2858 173° South 135 155 9,000  Level Jacksonville Center
Fri 12:03:52 PM 29.1628 -82.2792 170° South 136 157 9,000  Level Jacksonville Center
Fri 12:04:59 PM 29.1208 -82.2697 169° South 135 155 9,000  Level Jacksonville Center
Fri 12:06:00 PM 29.0833 -82.2606 168° South 137 158 9,000  Level Jacksonville Center
Fri 12:06:55 PM 29.0500 -82.2561 173° South 135 155 9,000 52 Level Jacksonville Center
Fri 12:07:56 PM 29.0103 -82.2467 168° South 133 153 9,100  Climbing Jacksonville Center
Fri 12:08:57 PM 28.9747 -82.2397 170° South 137 158 9,000 -98 Descending Jacksonville Center
Fri 12:09:58 PM 28.9372 -82.2331 171° South 137 158 8,900  Descending Jacksonville Center
Fri 12:10:59 PM 28.8975 -82.2214 166° South 134 154 9,000  Climbing Jacksonville Center
Fri 12:12:01 PM 28.8597 -82.2122 168° South 139 160 8,900 38 Descending Jacksonville Center
Fri 12:13:39 PM 28.8017 -82.1989 169° South 137 158 9,100 44 Climbing Miami Center
Fri 12:14:16 PM 28.7833 -82.2000 183° South 135 155 9,000 -66 Descending Tampa TRACON
Fri 12:15:10 PM 28.7333 -82.1833 164° South 137 158 9,000  Level Tampa TRACON
Fri 12:16:16 PM 28.7000 -82.1833 180° South 139 160 9,000  Level Tampa TRACON
Fri 12:17:16 PM 28.6667 -82.1667 156° South 138 159 9,000 -53 Level Tampa TRACON
Fri 12:18:10 PM 28.6333 -82.1667 180° South 137 158 8,900 -53 Descending Tampa TRACON
Fri 12:19:10 PM 28.5833 -82.1500 164° South 139 160 8,900 50 Level Tampa TRACON
Fri 12:20:10 PM 28.5500 -82.1500 180° South 136 157 9,000 50 Climbing Tampa TRACON
Fri 12:21:11 PM 28.5167 -82.1333 156° South 138 159 9,000 -50 Level Tampa TRACON
Fri 12:22:11 PM 28.4833 -82.1333 180° South 141 162 8,900 -50 Descending Tampa TRACON
Fri 12:23:11 PM 28.4333 -82.1167 164° South 138 159 8,900 50 Level Tampa TRACON
Fri 12:24:11 PM 28.4000 -82.1167 180° South 138 159 9,000  Climbing Tampa TRACON
Fri 12:25:05 PM 28.3667 -82.1000 156° South 139 160 8,900 -53 Descending Tampa TRACON
Fri 12:26:05 PM 28.3333 -82.1000 180° South 141 162 8,900 48 Level Tampa TRACON
Fri 12:27:11 PM 28.2833 -82.0833 164° South 140 161 9,000 50 Climbing Tampa TRACON
Fri 12:28:05 PM 28.2500 -82.0833 180° South 138 159 9,000 -53 Level Tampa TRACON
Fri 12:29:05 PM 28.2167 -82.0667 156° South 140 161 8,900 -50 Descending Tampa TRACON
Fri 12:30:05 PM 28.1667 -82.0667 180° South 141 162 8,900  Level Tampa TRACON
Fri 12:31:05 PM 28.1333 -82.0500 156° South 139 160 8,900 50 Level Tampa TRACON
Fri 12:32:05 PM 28.1000 -82.0333 156° South 137 158 9,000  Climbing Tampa TRACON
Fri 12:33:05 PM 28.0667 -82.0333 180° South 138 159 8,900 -50 Descending Tampa TRACON
Fri 12:34:05 PM 28.0167 -82.0167 164° South 141 162 8,900  Level Tampa TRACON
Fri 12:35:05 PM 27.9833 -82.0167 180° South 142 163 8,900  Level Tampa TRACON
Fri 12:37:31 PM 27.8989 -81.9992 170° South 141 162 8,900 58 Level Miami Center
Fri 12:38:33 PM 27.8528 -81.9917 172° South 138 159 9,100 96 Climbing Miami Center
Fri 12:39:36 PM 27.8144 -81.9853 172° South 139 160 9,100 -48 Level Miami Center
Fri 12:40:38 PM 27.7758 -81.9789 172° South 139 160 9,000 -48 Descending Miami Center
Fri 12:41:40 PM 27.7361 -81.9803 182° South 141 162 9,000 -32 Level Miami Center
Fri 12:43:45 PM 27.6525 -81.9811 180° South 145 167 8,900 -32 Descending Miami Center
Fri 12:44:47 PM 27.6133 -81.9819 181° South 143 165 8,900  Level Miami Center
Fri 12:45:49 PM 27.5747 -81.9831 181° South 140 161 8,900  Level Miami Center
Fri 12:46:52 PM 27.5286 -81.9856 183° South 140 161 8,900  Level Miami Center
Fri 12:47:54 PM 27.4892 -81.9861 181° South 140 161 8,900  Level Miami Center
Fri 12:48:56 PM 27.4503 -81.9869 181° South 140 161 8,900  Level Miami Center
Fri 12:49:58 PM 27.4114 -81.9875 181° South 141 162 8,900 -240 Level Miami Center
Fri 12:50:00 PM 27.4390 -81.9817 180° South  Level FlightAware Approximate
Fri 12:51:01 PM 27.3700 -81.9869 179° South 146 168 8,400  Level Miami Center
Fri 12:52:03 PM 27.3258 -81.9875 181° South 154 177 8,000 -532 Descending Miami Center
Fri 12:53:05 PM 27.2753 -81.9883 181° South 154 177 7,300 -484 Descending Miami Center
Fri 12:54:07 PM 27.2314 -81.9889 181° South 156 180 7,000 -192 Descending Miami Center
Fri 12:55:10 PM 27.1914 -81.9897 181° South 145 167 6,900  Descending Miami Center
Fri 12:56:12 PM 27.1525 -81.9900 180° South 140 161 7,000 48 Climbing Miami Center
Fri 12:57:14 PM 27.1144 -81.9919 183° South 139 160 7,000  Level Miami Center
Fri 12:58:16 PM 27.0664 -81.9919 180° South 142 163 7,000  Level Miami Center
Fri 12:59:19 PM 27.0281 -81.9914 179° South 141 162 7,000 -144 Level Miami Center
Fri 01:00:21 PM 26.9864 -81.9908 179° South 142 163 6,700 -484 Descending Miami Center
Fri 01:01:23 PM 26.9400 -81.9908 180° South 153 176 6,000 -629 Descending Miami Center
Fri 01:02:25 PM 26.8961 -81.9889 178° South 148 170 5,400 -480 Descending Miami Center
Fri 01:03:28 PM 26.8581 -81.9850 175° South 143 165 5,000 -240 Descending Miami Center
Fri 01:04:30 PM 26.8181 -81.9811 175° South 136 157 4,900  Descending Miami Center
Fri 01:05:32 PM 26.7833 -81.9781 176° South 129 148 5,000 96 Climbing Miami Center
Fri 01:06:35 PM 26.7444 -81.9736 174° South 129 148 5,100 -48 Climbing Miami Center
Fri 01:07:37 PM 26.7075 -81.9703 175° South 135 155 4,900 -48 Descending Miami Center
Fri 01:08:39 PM 26.6689 -81.9664 175° South 133 153 5,000 48 Climbing Miami Center
Fri 01:09:41 PM 26.6311 -81.9631 175° South 131 151 5,000 -240 Level Miami Center
Fri 01:10:44 PM 26.5967 -81.9525 165° South 128 147 4,500 -576 Descending Miami Center
Fri 01:11:46 PM 26.5567 -81.9358 160° South 140 161 3,800 -629 Descending Miami Center
Fri 01:12:48 PM 26.5197 -81.9203 159° South 140 161 3,200 -387 Descending Miami Center
Fri 01:13:50 PM 26.4817 -81.9044 160° South 137 158 3,000 -144 Descending Miami Center
Fri 01:14:53 PM 26.4453 -81.8906 161° South 131 151 2,900  Descending Miami Center
Fri 01:15:55 PM 26.4111 -81.8778 161° South 131 151 3,000 -290 Climbing Miami Center
Fri 01:16:57 PM 26.3725 -81.8606 158° South 135 155 2,300 -532 Descending Miami Center
Fri 01:17:59 PM 26.3378 -81.8469 161° South 135 155 1,900 -144 Descending Miami Center
Fri 01:19:02 PM 26.3025 -81.8328 160° South 131 151 2,000  Climbing Miami Center
Fri 01:20:04 PM 26.2686 -81.8192 160° South 125 144 1,900 -290 Descending Miami Center
Fri 01:21:06 PM 26.2344 -81.8078 163° South 125 144 1,400 -532 Descending Miami Center
Fri 01:22:08 PM 26.2017 -81.8006 169° South 116 133 800 -432 Descending Miami Center
Fri 01:23:11 PM 26.1775 -81.7981 175° South 93 107 500 -288 Descending Miami Center
Fri 01:24:13 PM 26.1631 -81.7867 145° Southeast 75 86 200 -290 Descending Miami Center
Fri 01:26:00 PM 26.1524 -81.7756 167° South  Level Estimated

Login

Don't have an account? Register now (free) for customized features, flight alerts, and more!